createdAt,value
2018-09-06T00:00:56.051Z,0
2018-09-06T00:01:55.987Z,0
2018-09-06T00:02:56.055Z,0
2018-09-06T00:03:55.987Z,0
2018-09-06T00:04:56.153Z,0
2018-09-06T00:05:56.058Z,0
2018-09-06T00:06:56.038Z,0
2018-09-06T00:07:56.040Z,0
2018-09-06T00:08:55.941Z,0
2018-09-06T00:09:55.970Z,0
2018-09-06T00:10:55.991Z,0
2018-09-06T00:11:56.013Z,0
2018-09-06T00:12:55.969Z,0
2018-09-06T00:13:55.947Z,0
2018-09-06T00:14:56.018Z,0
2018-09-06T00:15:55.949Z,0
2018-09-06T00:16:56.070Z,0
2018-09-06T00:17:56.067Z,0
2018-09-06T00:18:56.012Z,0
2018-09-06T00:19:56.070Z,0
2018-09-06T00:20:56.029Z,0
2018-09-06T00:21:56.003Z,0
2018-09-06T00:22:56.001Z,0
2018-09-06T00:23:56.072Z,0
2018-09-06T00:24:56.003Z,0
2018-09-06T00:25:56.075Z,0
2018-09-06T00:26:55.951Z,0
2018-09-06T00:27:55.980Z,0
2018-09-06T00:28:56.023Z,0
2018-09-06T00:29:55.952Z,0
2018-09-06T00:30:55.975Z,0
2018-09-06T00:31:56.011Z,0
2018-09-06T00:32:55.932Z,0
2018-09-06T00:33:55.940Z,0
2018-09-06T00:34:56.025Z,0
2018-09-06T00:35:56.046Z,0
2018-09-06T00:36:56.068Z,0
2018-09-06T00:37:56.096Z,0
2018-09-06T00:38:55.964Z,0
2018-09-06T00:39:56.077Z,0
2018-09-06T00:40:56.069Z,0
2018-09-06T00:41:55.987Z,0
2018-09-06T00:42:56.023Z,0
2018-09-06T00:43:55.984Z,0
2018-09-06T00:44:55.951Z,0
2018-09-06T00:45:55.987Z,0
2018-09-06T00:46:56.021Z,0
2018-09-06T00:47:56.016Z,0
2018-09-06T00:48:56.016Z,0
2018-09-06T00:49:56.109Z,0
2018-09-06T00:50:56.017Z,0
2018-09-06T00:51:56.089Z,0
2018-09-06T00:52:56.028Z,0
2018-09-06T00:53:56.096Z,0
2018-09-06T00:54:56.093Z,0
2018-09-06T00:55:56.020Z,0
2018-09-06T00:56:55.992Z,0
2018-09-06T00:57:56.001Z,0
2018-09-06T00:58:56.112Z,0
2018-09-06T00:59:56.002Z,0
2018-09-06T01:00:56.083Z,0
2018-09-06T01:01:56.068Z,0
2018-09-06T01:02:56.048Z,0
2018-09-06T01:03:56.053Z,0
2018-09-06T01:04:56.061Z,0
2018-09-06T01:05:56.005Z,0
2018-09-06T01:06:56.099Z,0
2018-09-06T01:07:56.025Z,0
2018-09-06T01:08:56.100Z,0
2018-09-06T01:09:56.035Z,0
2018-09-06T01:10:56.103Z,0
2018-09-06T01:11:56.104Z,0
2018-09-06T01:12:56.120Z,0
2018-09-06T01:13:56.038Z,0
2018-09-06T01:14:56.105Z,0
2018-09-06T01:15:56.106Z,0
2018-09-06T01:16:56.003Z,0
2018-09-06T01:17:56.053Z,0
2018-09-06T01:18:56.056Z,0
2018-09-06T01:19:55.939Z,0
2018-09-06T01:20:55.954Z,0
2018-09-06T01:21:56.041Z,0
2018-09-06T01:22:55.959Z,0
2018-09-06T01:23:55.964Z,0
2018-09-06T01:24:56.010Z,0
2018-09-06T01:25:56.061Z,0
2018-09-06T01:26:56.023Z,0
2018-09-06T01:27:55.987Z,0
2018-09-06T01:28:55.952Z,0
2018-09-06T01:29:55.934Z,0
2018-09-06T01:30:55.985Z,0
2018-09-06T01:31:55.930Z,0
2018-09-06T01:32:55.944Z,0
2018-09-06T01:33:56.047Z,0
2018-09-06T01:34:56.024Z,0
2018-09-06T01:35:56.027Z,0
2018-09-06T01:36:56.051Z,0
2018-09-06T01:37:56.127Z,0
2018-09-06T01:38:56.052Z,0
2018-09-06T01:39:56.054Z,0
2018-09-06T01:40:55.999Z,0
2018-09-06T01:41:56.054Z,0
2018-09-06T01:42:56.054Z,0
2018-09-06T01:43:56.127Z,0
2018-09-06T01:44:56.052Z,0
2018-09-06T01:45:56.071Z,0
2018-09-06T01:46:56.129Z,0
2018-09-06T01:47:56.130Z,0
2018-09-06T01:48:56.130Z,0
2018-09-06T01:49:56.063Z,0
2018-09-06T01:50:56.137Z,0
2018-09-06T01:51:56.057Z,0
2018-09-06T01:52:56.134Z,0
2018-09-06T01:53:56.069Z,0
2018-09-06T01:54:56.067Z,0
2018-09-06T01:55:56.070Z,0
2018-09-06T01:56:56.136Z,0
2018-09-06T01:57:56.135Z,0
2018-09-06T01:58:56.137Z,0
2018-09-06T01:59:56.063Z,0
2018-09-06T02:00:56.093Z,0
2018-09-06T02:01:56.141Z,0
2018-09-06T02:02:56.140Z,0
2018-09-06T02:03:56.078Z,0
2018-09-06T02:04:56.142Z,0
2018-09-06T02:05:56.071Z,0
2018-09-06T02:06:56.088Z,0
2018-09-06T02:07:56.125Z,0
2018-09-06T02:08:56.043Z,0
2018-09-06T02:09:56.080Z,0
2018-09-06T02:10:56.003Z,0
2018-09-06T02:11:56.113Z,0
2018-09-06T02:12:56.135Z,0
2018-09-06T02:13:56.134Z,0
2018-09-06T02:14:56.136Z,0
2018-09-06T02:15:56.027Z,0
2018-09-06T02:16:56.106Z,0
2018-09-06T02:17:56.118Z,0
2018-09-06T02:18:56.143Z,0
2018-09-06T02:19:56.148Z,0
2018-09-06T02:20:56.120Z,0
2018-09-06T02:21:56.057Z,0
2018-09-06T02:22:56.120Z,0
2018-09-06T02:23:56.143Z,0
2018-09-06T02:24:56.061Z,0
2018-09-06T02:25:56.107Z,0
2018-09-06T02:26:56.059Z,0
2018-09-06T02:27:56.058Z,0
2018-09-06T02:28:56.144Z,0
2018-09-06T02:29:56.056Z,0
2018-09-06T02:30:56.059Z,0
2018-09-06T02:31:56.112Z,0
2018-09-06T02:32:56.058Z,0
2018-09-06T02:33:56.059Z,0
2018-09-06T02:34:56.158Z,0
2018-09-06T02:35:56.129Z,0
2018-09-06T02:36:56.165Z,0
2018-09-06T02:37:56.099Z,0
2018-09-06T02:38:56.164Z,0
2018-09-06T02:39:56.098Z,0
2018-09-06T02:40:56.168Z,0
2018-09-06T02:41:56.170Z,0
2018-09-06T02:42:56.098Z,0
2018-09-06T02:43:56.062Z,0
2018-09-06T02:44:56.169Z,0
2018-09-06T02:45:56.124Z,0
2018-09-06T02:46:56.114Z,0
2018-09-06T02:47:56.185Z,0
2018-09-06T02:48:56.118Z,0
2018-09-06T02:49:56.126Z,0
2018-09-06T02:50:56.028Z,0
2018-09-06T02:51:56.114Z,0
2018-09-06T02:52:56.126Z,0
2018-09-06T02:53:56.169Z,0
2018-09-06T02:54:56.069Z,0
2018-09-06T02:55:56.025Z,0
2018-09-06T02:56:56.181Z,0
2018-09-06T02:57:56.177Z,0
2018-09-06T02:58:56.177Z,0
2018-09-06T02:59:56.179Z,0
2018-09-06T03:00:56.176Z,0
2018-09-06T03:01:56.108Z,0
2018-09-06T03:02:56.113Z,0
2018-09-06T03:03:56.161Z,0
2018-09-06T03:04:56.113Z,0
2018-09-06T03:05:56.186Z,0
2018-09-06T03:06:56.114Z,0
2018-09-06T03:07:56.118Z,0
2018-09-06T03:08:56.114Z,0
2018-09-06T03:09:56.194Z,0
2018-09-06T03:10:56.188Z,0
2018-09-06T03:11:56.124Z,0
2018-09-06T03:12:56.193Z,0
2018-09-06T03:13:56.149Z,0
2018-09-06T03:14:56.192Z,0
2018-09-06T03:15:56.194Z,0
2018-09-06T03:16:56.090Z,0
2018-09-06T03:17:56.084Z,0
2018-09-06T03:18:56.043Z,0
2018-09-06T03:19:56.089Z,0
2018-09-06T03:20:56.052Z,0
2018-09-06T03:21:56.087Z,0
2018-09-06T03:22:56.139Z,0
2018-09-06T03:23:56.095Z,0
2018-09-06T03:24:56.152Z,0
2018-09-06T03:25:56.096Z,0
2018-09-06T03:26:56.080Z,0
2018-09-06T03:27:56.183Z,0
2018-09-06T03:28:56.102Z,0
2018-09-06T03:29:56.185Z,0
2018-09-06T03:30:56.170Z,0
2018-09-06T03:31:56.154Z,0
2018-09-06T03:32:56.099Z,0
2018-09-06T03:33:56.173Z,0
2018-09-06T03:34:56.101Z,0
2018-09-06T03:35:56.138Z,0
2018-09-06T03:36:56.210Z,0
2018-09-06T03:37:56.138Z,0
2018-09-06T03:38:56.210Z,0
2018-09-06T03:39:56.179Z,0
2018-09-06T03:40:56.142Z,0
2018-09-06T03:41:56.210Z,0
2018-09-06T03:42:56.211Z,0
2018-09-06T03:43:56.147Z,0
2018-09-06T03:44:56.147Z,0
2018-09-06T03:45:56.213Z,0
2018-09-06T03:46:56.141Z,0
2018-09-06T03:47:56.216Z,0
2018-09-06T03:48:56.138Z,0
2018-09-06T03:49:56.151Z,0
2018-09-06T03:50:56.217Z,0
2018-09-06T03:51:56.232Z,0
2018-09-06T03:52:56.151Z,0
2018-09-06T03:53:56.217Z,0
2018-09-06T03:54:56.153Z,0
2018-09-06T03:55:56.219Z,0
2018-09-06T03:56:56.220Z,0
2018-09-06T03:57:56.220Z,0
2018-09-06T03:58:56.148Z,0
2018-09-06T03:59:56.223Z,0
2018-09-06T04:00:56.152Z,0
2018-09-06T04:01:56.224Z,0
2018-09-06T04:02:56.223Z,4
2018-09-06T04:03:56.222Z,4
2018-09-06T04:04:56.187Z,4
2018-09-06T04:05:56.153Z,0
2018-09-06T04:06:56.152Z,4
2018-09-06T04:07:56.228Z,4
2018-09-06T04:08:56.161Z,8
2018-09-06T04:09:56.161Z,8
2018-09-06T04:10:56.170Z,8
2018-09-06T04:11:56.231Z,12
2018-09-06T04:12:56.165Z,12
2018-09-06T04:13:56.158Z,16
2018-09-06T04:14:56.167Z,20
2018-09-06T04:15:56.233Z,20
2018-09-06T04:16:56.161Z,24
2018-09-06T04:17:56.234Z,28
2018-09-06T04:18:56.167Z,36
2018-09-06T04:19:56.164Z,44
2018-09-06T04:20:56.167Z,52
2018-09-06T04:21:56.237Z,60
2018-09-06T04:22:56.173Z,68
2018-09-06T04:23:56.239Z,80
2018-09-06T04:24:56.168Z,92
2018-09-06T04:25:56.239Z,108
2018-09-06T04:26:56.189Z,128
2018-09-06T04:27:56.195Z,144
2018-09-06T04:28:56.193Z,168
2018-09-06T04:29:56.230Z,188
2018-09-06T04:30:56.113Z,216
2018-09-06T04:31:56.109Z,248
2018-09-06T04:32:56.123Z,284
2018-09-06T04:33:56.128Z,324
2018-09-06T04:34:56.212Z,360
2018-09-06T04:35:56.236Z,408
2018-09-06T04:36:56.148Z,452
2018-09-06T04:37:56.199Z,508
2018-09-06T04:38:56.110Z,560
2018-09-06T04:39:56.115Z,616
2018-09-06T04:40:56.240Z,676
2018-09-06T04:41:56.135Z,744
2018-09-06T04:42:56.213Z,816
2018-09-06T04:43:56.210Z,892
2018-09-06T04:44:56.216Z,976
2018-09-06T04:45:56.113Z,1060
2018-09-06T04:46:56.207Z,1148
2018-09-06T04:47:56.161Z,1240
2018-09-06T04:48:56.180Z,1336
2018-09-06T04:49:56.113Z,1432
2018-09-06T04:50:56.282Z,1512
2018-09-06T04:51:56.149Z,1612
2018-09-06T04:52:56.222Z,1720
2018-09-06T04:53:56.208Z,1832
2018-09-06T04:54:56.215Z,1948
2018-09-06T04:55:56.242Z,2064
2018-09-06T04:56:56.147Z,2188
2018-09-06T04:57:56.186Z,2316
2018-09-06T04:58:56.200Z,2452
2018-09-06T04:59:56.266Z,2600
2018-09-06T05:00:56.265Z,2744
2018-09-06T05:01:56.193Z,2888
2018-09-06T05:02:56.244Z,3036
2018-09-06T05:03:56.265Z,3180
2018-09-06T05:04:56.188Z,3340
2018-09-06T05:05:56.267Z,3496
2018-09-06T05:06:56.200Z,3660
2018-09-06T05:07:56.178Z,3828
2018-09-06T05:08:56.137Z,3996
2018-09-06T05:09:56.197Z,4168
2018-09-06T05:10:56.119Z,4348
2018-09-06T05:11:56.198Z,4524
2018-09-06T05:12:56.139Z,4712
2018-09-06T05:13:56.249Z,4892
2018-09-06T05:14:56.131Z,5080
2018-09-06T05:15:56.183Z,5080
2018-09-06T05:16:56.129Z,5256
2018-09-06T05:17:56.199Z,5420
2018-09-06T05:18:56.278Z,5592
2018-09-06T05:19:56.201Z,5780
2018-09-06T05:20:56.279Z,5952
2018-09-06T05:21:56.237Z,6124
2018-09-06T05:22:56.278Z,6292
2018-09-06T05:23:56.212Z,6472
2018-09-06T05:24:56.213Z,6640
2018-09-06T05:25:56.281Z,6820
2018-09-06T05:26:56.209Z,7000
2018-09-06T05:27:56.222Z,7184
2018-09-06T05:28:56.164Z,7368
2018-09-06T05:29:56.256Z,7556
2018-09-06T05:30:56.232Z,7744
2018-09-06T05:31:56.160Z,7936
2018-09-06T05:32:56.283Z,8124
2018-09-06T05:33:56.185Z,8304
2018-09-06T05:34:56.267Z,8476
2018-09-06T05:35:56.205Z,8636
2018-09-06T05:36:56.274Z,8788
2018-09-06T05:37:56.217Z,8956
2018-09-06T05:38:56.291Z,9136
2018-09-06T05:39:56.215Z,9328
2018-09-06T05:40:56.290Z,9520
2018-09-06T05:41:56.216Z,9724
2018-09-06T05:42:56.294Z,9924
2018-09-06T05:43:56.220Z,10140
2018-09-06T05:44:56.289Z,10352
2018-09-06T05:45:56.245Z,10576
2018-09-06T05:46:56.298Z,11280
2018-09-06T05:47:56.298Z,12300
2018-09-06T05:48:56.295Z,12580
2018-09-06T05:49:56.229Z,12624
2018-09-06T05:50:56.302Z,12656
2018-09-06T05:51:56.242Z,12648
2018-09-06T05:52:56.303Z,13256
2018-09-06T05:53:56.301Z,13708
2018-09-06T05:54:56.233Z,13940
2018-09-06T05:55:56.225Z,14236
2018-09-06T05:56:56.304Z,14288
2018-09-06T05:57:56.231Z,14644
2018-09-06T05:58:56.306Z,14820
2018-09-06T05:59:56.329Z,15316
2018-09-06T06:00:56.236Z,15876
2018-09-06T06:01:56.237Z,16300
2018-09-06T06:02:56.307Z,16600
2018-09-06T06:03:56.232Z,16872
2018-09-06T06:04:56.236Z,17380
2018-09-06T06:05:56.310Z,17720
2018-09-06T06:06:56.240Z,17836
2018-09-06T06:07:56.297Z,18104
2018-09-06T06:08:56.263Z,19196
2018-09-06T06:09:56.279Z,20180
2018-09-06T06:10:56.266Z,20684
2018-09-06T06:11:56.441Z,20012
2018-09-06T06:12:56.172Z,19552
2018-09-06T06:13:56.316Z,20300
2018-09-06T06:14:56.195Z,20596
2018-09-06T06:15:56.269Z,20396
2018-09-06T06:16:56.266Z,20416
2018-09-06T06:17:56.242Z,21664
2018-09-06T06:18:56.318Z,22208
2018-09-06T06:19:56.377Z,21696
2018-09-06T06:20:56.244Z,22048
2018-09-06T06:21:56.329Z,22240
2018-09-06T06:22:56.245Z,22496
2018-09-06T06:23:56.314Z,23008
2018-09-06T06:24:56.325Z,23520
2018-09-06T06:25:56.322Z,22080
2018-09-06T06:26:56.251Z,22464
2018-09-06T06:27:56.327Z,29888
2018-09-06T06:28:56.266Z,28224
2018-09-06T06:29:56.328Z,32512
2018-09-06T06:30:56.253Z,37952
2018-09-06T06:31:56.318Z,35232
2018-09-06T06:32:56.253Z,41088
2018-09-06T06:33:56.339Z,36864
2018-09-06T06:34:56.261Z,37152
2018-09-06T06:35:56.260Z,37216
2018-09-06T06:36:56.320Z,37280
2018-09-06T06:37:56.337Z,37952
2018-09-06T06:38:56.276Z,38496
2018-09-06T06:39:56.357Z,39648
2018-09-06T06:40:56.259Z,40864
2018-09-06T06:41:56.333Z,41952
2018-09-06T06:42:56.269Z,42496
2018-09-06T06:43:56.336Z,42912
2018-09-06T06:45:56.338Z,43040
2018-09-06T06:46:56.265Z,43744
2018-09-06T06:47:56.323Z,44512
2018-09-06T06:48:56.233Z,44928
2018-09-06T06:49:56.328Z,45024
2018-09-06T06:50:56.339Z,44736
2018-09-06T06:51:56.306Z,44320
2018-09-06T06:52:56.328Z,44704
2018-09-06T06:53:56.239Z,45344
2018-09-06T06:54:56.282Z,46240
2018-09-06T06:55:56.325Z,47648
2018-09-06T06:56:56.335Z,48992
2018-09-06T06:57:56.272Z,49856
2018-09-06T06:58:56.273Z,50208
2018-09-06T06:59:56.349Z,50240
2018-09-06T07:00:56.375Z,49280
2018-09-06T07:01:56.274Z,47904
2018-09-06T07:02:56.273Z,47552
2018-09-06T07:03:56.259Z,48064
2018-09-06T07:04:56.279Z,48608
2018-09-06T07:05:56.282Z,49792
2018-09-06T07:06:56.455Z,51424
2018-09-06T07:07:56.277Z,52576
2018-09-06T07:08:56.356Z,53632
2018-09-06T07:09:56.310Z,54016
2018-09-06T07:10:56.364Z,53728
2018-09-06T07:11:56.282Z,53184
2018-09-06T07:12:56.358Z,52032
2018-09-06T07:13:56.288Z,52096
2018-09-06T07:14:56.357Z,53216
2018-09-06T07:15:56.293Z,54208
2018-09-06T07:16:56.292Z,55424
2018-09-06T07:17:56.362Z,56512
2018-09-06T07:18:56.285Z,57280
2018-09-06T07:19:56.286Z,57280
2018-09-06T07:20:56.364Z,56576
2018-09-06T07:21:56.291Z,55904
2018-09-06T07:22:56.364Z,55360
2018-09-06T07:23:56.289Z,54848
2018-09-06T07:24:56.366Z,53792
2018-09-06T07:25:56.430Z,53024
2018-09-06T07:26:56.366Z,53984
2018-09-06T07:27:56.298Z,55456
2018-09-06T07:28:56.329Z,55808
2018-09-06T07:29:56.367Z,56832
2018-09-06T07:30:56.346Z,57792
2018-09-06T07:31:56.298Z,55936
2018-09-06T07:32:56.304Z,57952
2018-09-06T07:33:56.371Z,58528
2018-09-06T07:34:56.300Z,58976
2018-09-06T07:35:56.375Z,60512
2018-09-06T07:36:56.299Z,61856
2018-09-06T07:37:56.251Z,60864
2018-09-06T07:38:56.316Z,62272
2018-09-06T07:39:56.337Z,63360
2018-09-06T07:40:56.288Z,65664
2018-09-06T07:41:56.287Z,67808
2018-09-06T07:42:56.271Z,70304
2018-09-06T07:43:56.302Z,72416
2018-09-06T07:44:56.302Z,73536
2018-09-06T07:45:56.276Z,73600
2018-09-06T07:46:56.459Z,74752
2018-09-06T07:47:56.253Z,75168
2018-09-06T07:48:56.344Z,75744
2018-09-06T07:49:56.381Z,75744
2018-09-06T07:50:56.276Z,75008
2018-09-06T07:51:56.369Z,74944
2018-09-06T07:52:56.347Z,76352
2018-09-06T07:53:56.286Z,77312
2018-09-06T07:54:56.377Z,78176
2018-09-06T07:55:56.297Z,77184
2018-09-06T07:56:56.371Z,77184
2018-09-06T07:57:56.262Z,77760
2018-09-06T07:58:56.427Z,78496
2018-09-06T07:59:56.249Z,78496
2018-09-06T08:00:56.301Z,78272
2018-09-06T08:01:56.377Z,77504
2018-09-06T08:02:56.378Z,76672
2018-09-06T08:03:56.274Z,75296
2018-09-06T08:04:56.379Z,74752
2018-09-06T08:05:56.381Z,76928
2018-09-06T08:06:56.266Z,77248
2018-09-06T08:08:56.395Z,75136
2018-09-06T08:09:56.322Z,77568
2018-09-06T08:10:56.409Z,78976
2018-09-06T08:11:56.418Z,80992
2018-09-06T08:12:56.397Z,82080
2018-09-06T08:13:56.331Z,83104
2018-09-06T08:14:56.346Z,83360
2018-09-06T08:15:56.403Z,84192
2018-09-06T08:16:56.327Z,85824
2018-09-06T08:17:56.300Z,85344
2018-09-06T08:18:56.477Z,80512
2018-09-06T08:19:56.387Z,86112
2018-09-06T08:20:56.308Z,84000
2018-09-06T08:21:56.396Z,84768
2018-09-06T08:22:56.277Z,81248
2018-09-06T08:23:56.279Z,83840
2018-09-06T08:24:56.283Z,85472
2018-09-06T08:25:56.285Z,87584
2018-09-06T08:26:56.294Z,87456
2018-09-06T08:27:56.410Z,85888
2018-09-06T08:28:56.427Z,83936
2018-09-06T08:29:56.333Z,80352
2018-09-06T08:30:56.519Z,78400
2018-09-06T08:31:56.425Z,81600
2018-09-06T08:32:56.340Z,87104
2018-09-06T08:33:56.411Z,92128
2018-09-06T08:34:56.347Z,95456
2018-09-06T08:35:56.415Z,96672
2018-09-06T08:36:56.369Z,94592
2018-09-06T08:37:56.421Z,92064
2018-09-06T08:38:56.419Z,91584
2018-09-06T08:39:56.391Z,90944
2018-09-06T08:40:56.421Z,88672
2018-09-06T08:41:56.348Z,87936
2018-09-06T08:42:56.422Z,89184
2018-09-06T08:43:56.369Z,91264
2018-09-06T08:44:56.419Z,93728
2018-09-06T08:45:56.348Z,96800
2018-09-06T08:46:56.353Z,98400
2018-09-06T08:47:56.408Z,99296
2018-09-06T08:48:56.389Z,100384
2018-09-06T08:49:56.296Z,96512
2018-09-06T08:50:56.462Z,96416
2018-09-06T08:51:56.424Z,100640
2018-09-06T08:52:56.371Z,97792
2018-09-06T08:53:56.425Z,98656
2018-09-06T08:54:56.377Z,99200
2018-09-06T08:55:56.287Z,101248
2018-09-06T08:56:56.417Z,100256
2018-09-06T08:57:56.313Z,97632
2018-09-06T08:58:56.379Z,96864
2018-09-06T08:59:56.324Z,102144
2018-09-06T09:00:56.377Z,99776
2018-09-06T09:01:56.411Z,97056
2018-09-06T09:02:56.606Z,97568
2018-09-06T09:03:56.339Z,98016
2018-09-06T09:04:56.296Z,98560
2018-09-06T09:05:56.396Z,99424
2018-09-06T09:06:56.380Z,98816
2018-09-06T09:07:56.441Z,101760
2018-09-06T09:08:56.439Z,104448
2018-09-06T09:09:56.365Z,109184
2018-09-06T09:10:56.496Z,113280
2018-09-06T09:11:56.446Z,114816
2018-09-06T09:12:56.414Z,113952
2018-09-06T09:13:56.443Z,111680
2018-09-06T09:14:56.453Z,103488
2018-09-06T09:15:56.505Z,102176
2018-09-06T09:16:56.403Z,103744
2018-09-06T09:17:56.404Z,103296
2018-09-06T09:18:56.371Z,104096
2018-09-06T09:19:56.447Z,108608
2018-09-06T09:20:56.373Z,111168
2018-09-06T09:21:56.485Z,114528
2018-09-06T09:22:56.376Z,115200
2018-09-06T09:23:56.446Z,110496
2018-09-06T09:25:56.447Z,96896
2018-09-06T09:26:56.375Z,105376
2018-09-06T09:27:56.452Z,100416
2018-09-06T09:28:56.383Z,102016
2018-09-06T09:29:56.386Z,97344
2018-09-06T09:30:56.453Z,108128
2018-09-06T09:31:56.344Z,109760
2018-09-06T09:32:56.365Z,108832
2018-09-06T09:33:56.391Z,111936
2018-09-06T09:34:56.475Z,108832
2018-09-06T09:35:56.434Z,112416
2018-09-06T09:36:56.461Z,112352
2018-09-06T09:37:56.380Z,113056
2018-09-06T09:38:56.385Z,111520
2018-09-06T09:39:56.384Z,113472
2018-09-06T09:40:56.372Z,112448
2018-09-06T09:41:56.462Z,117024
2018-09-06T09:42:56.389Z,117248
2018-09-06T09:43:56.464Z,114976
2018-09-06T09:44:56.392Z,110528
2018-09-06T09:47:56.470Z,110848
2018-09-06T09:49:56.472Z,97696
2018-09-06T09:50:56.398Z,92832
2018-09-06T09:51:56.509Z,101792
2018-09-06T09:52:56.400Z,108640
2018-09-06T09:53:56.470Z,101824
2018-09-06T09:54:56.402Z,104640
2018-09-06T09:55:56.473Z,92064
2018-09-06T09:56:56.475Z,88352
2018-09-06T09:57:56.425Z,87328
2018-09-06T09:58:56.473Z,100768
2018-09-06T09:59:56.424Z,76416
2018-09-06T10:00:56.473Z,68576
2018-09-06T10:01:56.403Z,65024
2018-09-06T10:02:56.401Z,61120
2018-09-06T10:03:56.477Z,57632
2018-09-06T10:04:56.403Z,57024
2018-09-06T10:05:56.379Z,52800
2018-09-06T10:06:56.407Z,50368
2018-09-06T10:07:56.477Z,47744
2018-09-06T10:08:56.483Z,46048
2018-09-06T10:09:56.420Z,44736
2018-09-06T10:10:56.422Z,43488
2018-09-06T10:11:56.381Z,42080
2018-09-06T10:12:56.339Z,40320
2018-09-06T10:13:56.467Z,38240
2018-09-06T10:14:56.484Z,36064
2018-09-06T10:15:56.396Z,34176
2018-09-06T10:16:56.482Z,32672
2018-09-06T10:17:56.525Z,31584
2018-09-06T10:18:56.358Z,30976
2018-09-06T10:19:56.400Z,30560
2018-09-06T10:20:56.459Z,30496
2018-09-06T10:21:56.452Z,30528
2018-09-06T10:22:56.458Z,30656
2018-09-06T10:23:56.404Z,30752
2018-09-06T10:24:56.453Z,30848
2018-09-06T10:25:56.430Z,30912
2018-09-06T10:26:56.454Z,30976
2018-09-06T10:27:56.495Z,30816
2018-09-06T10:28:56.496Z,30880
2018-09-06T10:29:56.373Z,31072
2018-09-06T10:30:56.483Z,31424
2018-09-06T10:31:56.497Z,31840
2018-09-06T10:32:56.374Z,32352
2018-09-06T10:33:56.359Z,32832
2018-09-06T10:34:56.483Z,33248
2018-09-06T10:35:56.497Z,33696
2018-09-06T10:36:56.476Z,34112
2018-09-06T10:37:56.466Z,34656
2018-09-06T10:38:56.405Z,35360
2018-09-06T10:39:56.439Z,36096
2018-09-06T10:40:56.398Z,36896
2018-09-06T10:41:56.426Z,37888
2018-09-06T10:42:56.377Z,39328
2018-09-06T10:43:56.465Z,40960
2018-09-06T10:44:56.540Z,42272
2018-09-06T10:45:56.406Z,43200
2018-09-06T10:46:56.401Z,43712
2018-09-06T10:47:56.582Z,43840
2018-09-06T10:48:56.507Z,43456
2018-09-06T10:49:56.435Z,42848
2018-09-06T10:50:56.455Z,42432
2018-09-06T10:51:56.521Z,42432
2018-09-06T10:52:56.530Z,42848
2018-09-06T10:53:56.391Z,43776
2018-09-06T10:54:56.517Z,45056
2018-09-06T10:55:56.438Z,46976
2018-09-06T10:56:56.515Z,49344
2018-09-06T10:57:56.520Z,51744
2018-09-06T10:58:56.439Z,53920
2018-09-06T10:59:56.409Z,55648
2018-09-06T11:00:56.519Z,57280
2018-09-06T11:01:56.451Z,63584
2018-09-06T11:02:56.522Z,60096
2018-09-06T11:03:56.519Z,59936
2018-09-06T11:04:56.448Z,61440
2018-09-06T11:05:56.524Z,60384
2018-09-06T11:06:56.478Z,60576
2018-09-06T11:07:56.476Z,61536
2018-09-06T11:08:56.534Z,63296
2018-09-06T11:09:56.526Z,65376
2018-09-06T11:10:56.480Z,66976
2018-09-06T11:11:56.459Z,68832
2018-09-06T11:12:56.528Z,71040
2018-09-06T11:13:56.457Z,73216
2018-09-06T11:14:56.560Z,75744
2018-09-06T11:15:56.500Z,72032
2018-09-06T11:16:56.528Z,71232
2018-09-06T11:17:56.514Z,70368
2018-09-06T11:18:56.544Z,70368
2018-09-06T11:19:56.467Z,70912
2018-09-06T11:20:56.545Z,72544
2018-09-06T11:21:56.580Z,77376
2018-09-06T11:22:56.531Z,80512
2018-09-06T11:23:56.465Z,83008
2018-09-06T11:24:56.460Z,82976
2018-09-06T11:25:56.534Z,88672
2018-09-06T11:26:56.460Z,89568
2018-09-06T11:27:56.603Z,94048
2018-09-06T11:28:56.461Z,101824
2018-09-06T11:29:56.531Z,84576
2018-09-06T11:30:56.441Z,104448
2018-09-06T11:31:56.412Z,100640
2018-09-06T11:32:56.482Z,106112
2018-09-06T11:33:56.482Z,102208
2018-09-06T11:34:56.536Z,85536
2018-09-06T11:35:56.483Z,84512
2018-09-06T11:36:56.509Z,83168
2018-09-06T11:37:56.562Z,76640
2018-09-06T11:38:56.470Z,80608
2018-09-06T11:39:56.582Z,86528
2018-09-06T11:40:56.473Z,82560
2018-09-06T11:41:56.547Z,79168
2018-09-06T11:42:56.496Z,79776
2018-09-06T11:43:56.634Z,81728
2018-09-06T11:44:56.584Z,84896
2018-09-06T11:45:56.508Z,80768
2018-09-06T11:46:56.585Z,83008
2018-09-06T11:47:56.478Z,88512
2018-09-06T11:48:56.415Z,82400
2018-09-06T11:49:56.455Z,82272
2018-09-06T11:50:56.419Z,95392
2018-09-06T11:51:56.508Z,95104
2018-09-06T11:52:56.418Z,95104
2018-09-06T11:53:56.477Z,91328
2018-09-06T11:54:56.487Z,86656
2018-09-06T11:55:56.462Z,80736
2018-09-06T11:56:56.544Z,80160
2018-09-06T11:57:56.485Z,84448
2018-09-06T11:58:56.558Z,85696
2018-09-06T11:59:56.557Z,88128
2018-09-06T12:00:56.500Z,91776
2018-09-06T12:01:56.608Z,89312
2018-09-06T12:02:56.487Z,87776
2018-09-06T12:03:56.564Z,85344
2018-09-06T12:04:56.486Z,83776
2018-09-06T12:05:56.564Z,78752
2018-09-06T12:06:56.514Z,77568
2018-09-06T12:07:56.565Z,77504
2018-09-06T12:08:56.498Z,76960
2018-09-06T12:09:56.566Z,77952
2018-09-06T12:10:56.494Z,79712
2018-09-06T12:11:56.571Z,84096
2018-09-06T12:12:56.492Z,85120
2018-09-06T12:13:56.570Z,84960
2018-09-06T12:14:56.522Z,83648
2018-09-06T12:15:56.572Z,85280
2018-09-06T12:16:56.572Z,87680
2018-09-06T12:17:56.603Z,90976
2018-09-06T12:18:56.570Z,93248
2018-09-06T12:19:56.497Z,96192
2018-09-06T12:20:56.574Z,92000
2018-09-06T12:21:56.509Z,94848
2018-09-06T12:22:56.581Z,88864
2018-09-06T12:23:56.532Z,82048
2018-09-06T12:24:56.507Z,77152
2018-09-06T12:25:56.577Z,75712
2018-09-06T12:26:56.583Z,75360
2018-09-06T12:27:56.506Z,73856
2018-09-06T12:28:56.568Z,70336
2018-09-06T12:29:56.482Z,70080
2018-09-06T12:30:56.578Z,71648
2018-09-06T12:31:56.550Z,72960
2018-09-06T12:32:56.483Z,73632
2018-09-06T12:33:56.530Z,73312
2018-09-06T12:34:56.508Z,70912
2018-09-06T12:35:56.485Z,70400
2018-09-06T12:36:56.583Z,70592
2018-09-06T12:37:56.519Z,71424
2018-09-06T12:38:56.587Z,71392
2018-09-06T12:39:56.539Z,73344
2018-09-06T12:40:56.513Z,72512
2018-09-06T12:41:56.592Z,73056
2018-09-06T12:42:56.521Z,72416
2018-09-06T12:43:56.590Z,71680
2018-09-06T12:44:56.521Z,71136
2018-09-06T12:45:56.594Z,71136
2018-09-06T12:46:56.518Z,70752
2018-09-06T12:47:56.623Z,72000
2018-09-06T12:48:56.570Z,72928
2018-09-06T12:49:56.557Z,74112
2018-09-06T12:50:56.522Z,74464
2018-09-06T12:51:56.552Z,75360
2018-09-06T12:52:56.482Z,87968
2018-09-06T12:53:56.459Z,90112
2018-09-06T12:54:56.545Z,83456
2018-09-06T12:55:56.631Z,77152
2018-09-06T12:56:56.455Z,77376
2018-09-06T12:57:56.476Z,83072
2018-09-06T12:58:56.537Z,78944
2018-09-06T12:59:56.472Z,70528
2018-09-06T13:00:56.461Z,72192
2018-09-06T13:01:56.418Z,63584
2018-09-06T13:02:56.417Z,60352
2018-09-06T13:03:56.477Z,57888
2018-09-06T13:04:56.427Z,55680
2018-09-06T13:05:56.511Z,53504
2018-09-06T13:06:56.516Z,52960
2018-09-06T13:07:56.505Z,52864
2018-09-06T13:08:56.551Z,50240
2018-09-06T13:09:56.514Z,47968
2018-09-06T13:10:56.492Z,45888
2018-09-06T13:11:56.571Z,44288
2018-09-06T13:12:56.495Z,43584
2018-09-06T13:13:56.536Z,44128
2018-09-06T13:14:56.576Z,46176
2018-09-06T13:15:56.475Z,51072
2018-09-06T13:16:56.568Z,52128
2018-09-06T13:17:56.574Z,53248
2018-09-06T13:18:56.541Z,54208
2018-09-06T13:19:56.491Z,54304
2018-09-06T13:20:56.552Z,54560
2018-09-06T13:21:56.548Z,54688
2018-09-06T13:22:56.618Z,54784
2018-09-06T13:23:56.631Z,55232
2018-09-06T13:24:56.551Z,55680
2018-09-06T13:25:56.544Z,56032
2018-09-06T13:26:56.654Z,56544
2018-09-06T13:27:56.623Z,57312
2018-09-06T13:28:56.621Z,59200
2018-09-06T13:29:56.549Z,71488
2018-09-06T13:30:56.624Z,89760
2018-09-06T13:31:56.558Z,91296
2018-09-06T13:32:56.560Z,93376
2018-09-06T13:33:56.786Z,95072